createdAt,value
2019-05-29T00:01:37.401Z,59.43
2019-05-29T00:07:43.285Z,59.76
2019-05-29T00:13:49.281Z,59.87
2019-05-29T00:19:55.162Z,60.09
2019-05-29T00:26:01.525Z,60.51
2019-05-29T00:32:08.820Z,61.00
2019-05-29T00:38:14.960Z,61.24
2019-05-29T00:44:33.455Z,61.52
2019-05-29T00:50:28.205Z,62.09
2019-05-29T00:56:33.970Z,62.37
2019-05-29T01:02:39.720Z,62.83
2019-05-29T01:08:45.683Z,63.01
2019-05-29T01:14:51.547Z,63.75
2019-05-29T01:20:57.358Z,64.12
2019-05-29T01:27:03.193Z,64.51
2019-05-29T01:33:09.209Z,65.29
2019-05-29T01:39:15.253Z,65.81
2019-05-29T01:45:21.523Z,66.16
2019-05-29T01:51:28.047Z,66.87
2019-05-29T01:57:33.967Z,67.42
2019-05-29T02:03:39.759Z,67.80
2019-05-29T02:09:46.327Z,67.54
2019-05-29T02:15:52.047Z,67.76
2019-05-29T02:21:58.543Z,67.95
2019-05-29T02:28:04.285Z,68.16
2019-05-29T02:34:10.257Z,68.61
2019-05-29T02:40:16.513Z,68.65
2019-05-29T02:46:26.437Z,68.83
2019-05-29T02:52:33.155Z,69.08
2019-05-29T02:58:39.186Z,69.00
2019-05-29T03:04:45.198Z,69.28
2019-05-29T03:10:51.265Z,69.79
2019-05-29T03:16:57.623Z,69.97
2019-05-29T03:23:03.447Z,70.33
2019-05-29T03:29:09.335Z,70.78
2019-05-29T03:35:15.273Z,70.72
2019-05-29T03:41:21.142Z,70.56
2019-05-29T03:47:28.675Z,70.41
2019-05-29T03:53:37.726Z,70.61
2019-05-29T03:59:42.895Z,70.88
2019-05-29T04:05:48.625Z,71.09
2019-05-29T04:11:54.618Z,71.46
2019-05-29T04:18:01.708Z,71.50
2019-05-29T04:24:09.419Z,71.83
2019-05-29T04:30:16.263Z,71.89
2019-05-29T04:36:22.490Z,71.45
2019-05-29T04:42:29.611Z,70.82
2019-05-29T04:48:39.754Z,70.22
2019-05-29T04:54:43.908Z,69.61
2019-05-29T05:00:59.090Z,69.27
2019-05-29T05:06:58.456Z,68.74
2019-05-29T05:13:05.328Z,68.27
2019-05-29T05:19:11.089Z,67.80
2019-05-29T05:25:16.938Z,67.54
2019-05-29T05:31:23.361Z,67.07
2019-05-29T05:37:30.537Z,66.70
2019-05-29T05:43:36.942Z,66.38
2019-05-29T05:49:42.879Z,65.93
2019-05-29T05:55:48.618Z,65.53
2019-05-29T06:01:54.464Z,65.20
2019-05-29T06:08:01.211Z,63.63
2019-05-29T06:14:07.161Z,62.92
2019-05-29T06:20:14.275Z,62.23
2019-05-29T06:26:20.057Z,60.49
2019-05-29T06:32:25.821Z,60.24
2019-05-29T06:38:31.563Z,59.84
2019-05-29T06:44:39.398Z,60.26
2019-05-29T06:50:45.060Z,59.30
2019-05-29T06:56:51.572Z,58.50
2019-05-29T07:02:57.329Z,57.96
2019-05-29T07:09:04.057Z,56.66
2019-05-29T07:15:10.244Z,56.05
2019-05-29T07:21:16.310Z,54.47
2019-05-29T07:27:22.075Z,55.14
2019-05-29T07:33:27.991Z,54.87
2019-05-29T07:39:34.016Z,54.05
2019-05-29T07:45:40.605Z,53.08
2019-05-29T07:51:48.841Z,52.15
2019-05-29T07:57:54.841Z,51.09
2019-05-29T08:04:00.661Z,49.89
2019-05-29T08:10:07.598Z,49.01
2019-05-29T08:16:13.353Z,48.32
2019-05-29T08:22:33.669Z,47.59
2019-05-29T08:28:27.666Z,47.73
2019-05-29T08:34:33.866Z,46.10
2019-05-29T08:40:40.967Z,46.89
2019-05-29T08:47:06.468Z,46.95
2019-05-29T08:52:55.175Z,46.03
2019-05-29T08:59:00.917Z,45.83
2019-05-29T09:05:08.204Z,46.39
2019-05-29T09:11:13.989Z,44.91
2019-05-29T09:17:20.121Z,43.84
2019-05-29T09:23:25.849Z,43.59
2019-05-29T09:29:31.757Z,44.60
2019-05-29T09:35:37.462Z,43.76
2019-05-29T09:41:43.319Z,43.73
2019-05-29T09:47:49.139Z,43.52
2019-05-29T09:53:57.254Z,42.78
2019-05-29T10:00:04.031Z,42.73
2019-05-29T10:06:11.005Z,41.12
2019-05-29T10:12:16.856Z,42.22
2019-05-29T10:18:32.083Z,40.93
2019-05-29T10:24:32.509Z,40.96
2019-05-29T10:30:38.200Z,40.58
2019-05-29T10:36:49.901Z,40.39
2019-05-29T10:42:53.893Z,39.32
2019-05-29T10:48:59.904Z,39.82
2019-05-29T10:55:06.491Z,39.52
2019-05-29T11:01:12.797Z,39.32
2019-05-29T11:07:19.085Z,39.23
2019-05-29T11:13:25.075Z,39.49
2019-05-29T11:19:31.632Z,38.99
2019-05-29T11:25:45.480Z,38.45
2019-05-29T11:31:53.463Z,37.13
2019-05-29T11:38:00.516Z,37.63
2019-05-29T11:44:08.111Z,37.54
2019-05-29T11:50:19.569Z,37.71
2019-05-29T11:56:22.920Z,36.86
2019-05-29T12:02:28.720Z,35.96
2019-05-29T12:08:34.504Z,36.26
2019-05-29T12:14:58.824Z,36.73
2019-05-29T12:20:48.391Z,35.76
2019-05-29T12:26:54.537Z,35.85
2019-05-29T12:33:01.162Z,35.68
2019-05-29T12:39:09.041Z,34.91
2019-05-29T12:45:15.171Z,35.61
2019-05-29T12:51:20.960Z,36.53
2019-05-29T12:57:26.819Z,37.94
2019-05-29T13:03:32.594Z,35.75
2019-05-29T13:09:39.326Z,35.44
2019-05-29T13:15:45.256Z,34.18
2019-05-29T13:21:51.417Z,33.14
2019-05-29T13:27:59.872Z,33.05
2019-05-29T13:34:07.151Z,33.37
2019-05-29T13:40:13.797Z,31.69
2019-05-29T13:46:19.954Z,32.82
2019-05-29T13:52:26.411Z,30.99
2019-05-29T13:58:32.402Z,29.87
2019-05-29T14:04:38.633Z,29.11
2019-05-29T14:10:44.705Z,29.49
2019-05-29T14:16:50.933Z,27.93
2019-05-29T14:22:57.045Z,27.76
2019-05-29T14:29:03.527Z,27.13
2019-05-29T14:35:11.153Z,26.25
2019-05-29T14:41:18.158Z,25.82
2019-05-29T14:47:24.512Z,24.96
2019-05-29T14:53:31.454Z,24.63
2019-05-29T14:59:38.217Z,23.13
2019-05-29T15:05:45.028Z,23.77
2019-05-29T15:11:51.819Z,23.77
2019-05-29T15:18:02.903Z,23.29
2019-05-29T15:24:09.856Z,23.80
2019-05-29T15:30:22.291Z,23.05
2019-05-29T15:36:24.264Z,23.37
2019-05-29T15:42:30.539Z,22.77
2019-05-29T15:48:36.717Z,23.28
2019-05-29T15:54:43.269Z,22.96
2019-05-29T16:00:50.034Z,23.48
2019-05-29T16:06:56.402Z,22.94
2019-05-29T16:13:02.773Z,21.92
2019-05-29T16:19:10.043Z,21.62
2019-05-29T16:25:16.970Z,22.09
2019-05-29T16:31:23.543Z,22.45
2019-05-29T16:37:30.652Z,22.58
2019-05-29T16:43:37.217Z,22.62
2019-05-29T16:49:43.532Z,22.96
2019-05-29T16:55:53.868Z,22.23
2019-05-29T17:01:58.392Z,22.67
2019-05-29T17:08:04.659Z,23.23
2019-05-29T17:14:10.770Z,23.10
2019-05-29T17:20:22.779Z,23.90
2019-05-29T17:26:28.969Z,24.69
2019-05-29T17:32:35.250Z,23.98
2019-05-29T17:38:41.478Z,24.66
2019-05-29T17:44:48.220Z,25.27
2019-05-29T17:50:56.686Z,25.70
2019-05-29T17:57:02.940Z,25.53
2019-05-29T18:03:09.148Z,25.37
2019-05-29T18:09:15.093Z,26.38
2019-05-29T18:15:21.690Z,26.53
2019-05-29T18:21:28.072Z,27.03
2019-05-29T18:27:35.330Z,27.51
2019-05-29T18:33:41.413Z,28.08
2019-05-29T18:39:47.665Z,28.43
2019-05-29T18:45:53.491Z,28.88
2019-05-29T18:52:00.572Z,29.37
2019-05-29T18:58:07.044Z,29.94
2019-05-29T19:04:12.952Z,30.18
2019-05-29T19:10:19.486Z,32.98
2019-05-29T19:16:26.345Z,37.47
2019-05-29T19:22:32.781Z,39.84
2019-05-29T19:28:38.672Z,42.25
2019-05-29T19:34:44.843Z,42.39
2019-05-29T19:40:50.961Z,42.55
2019-05-29T19:46:57.146Z,42.29
2019-05-29T19:53:03.334Z,42.63
2019-05-29T19:59:09.192Z,43.97
2019-05-29T20:05:15.428Z,45.50
2019-05-29T20:11:21.282Z,46.98
2019-05-29T20:17:27.949Z,48.20
2019-05-29T20:23:34.621Z,49.55
2019-05-29T20:29:42.638Z,50.49
2019-05-29T20:35:48.669Z,51.45
2019-05-29T20:41:54.797Z,52.45
2019-05-29T20:48:00.800Z,54.01
2019-05-29T20:54:07.094Z,54.71
2019-05-29T21:00:15.017Z,56.26
2019-05-29T21:06:23.670Z,56.11
2019-05-29T21:12:29.944Z,55.96
2019-05-29T21:18:36.022Z,55.63
2019-05-29T21:24:55.339Z,55.05
2019-05-29T21:30:50.395Z,55.01
2019-05-29T21:36:57.429Z,56.19
2019-05-29T21:43:04.169Z,56.07
2019-05-29T21:49:10.180Z,56.88
2019-05-29T21:55:16.327Z,58.83
2019-05-29T22:01:22.361Z,59.18
2019-05-29T22:07:28.393Z,59.06
2019-05-29T22:13:34.369Z,58.65
2019-05-29T22:19:40.358Z,58.13
2019-05-29T22:25:46.434Z,58.50
2019-05-29T22:31:53.365Z,59.04
2019-05-29T22:38:00.123Z,59.85
2019-05-29T22:44:06.520Z,59.85
2019-05-29T22:50:12.540Z,59.92
2019-05-29T22:56:18.643Z,60.12
2019-05-29T23:02:24.930Z,60.06
2019-05-29T23:08:31.392Z,59.65
2019-05-29T23:14:37.299Z,59.82
2019-05-29T23:20:43.502Z,60.37
2019-05-29T23:26:49.351Z,60.33
2019-05-29T23:32:55.150Z,60.11
2019-05-29T23:39:01.436Z,60.26
2019-05-29T23:45:07.865Z,60.28
2019-05-29T23:51:13.979Z,60.33
2019-05-29T23:57:19.901Z,60.71
